Time;durP1;ratioP1;P1;durP2;ratioP2;P2;SDS_P1;SDS_P2;PMS_P1;PMS_P2;Temp;Humidity;BMP_temperature;BMP_pressure;BME280_temperature;BME280_humidity;BME280_pressure;Samples;Min_cycle;Max_cycle;Signal;HPM_P1;HPM_P2
2022/07/14 00:01:42;;;;;;;1.20;0.90;;;;;;;18.70;36.27;94370.25;4994689;28;20317;-82
2022/07/14 00:04:07;;;;;;;2.42;0.85;;;;;;;19.02;36.04;94354.03;4998841;28;20026;-81
2022/07/14 00:06:34;;;;;;;1.33;0.77;;;;;;;18.78;36.61;94347.72;4994649;28;20026;-81
2022/07/14 00:09:00;;;;;;;1.95;1.17;;;;;;;18.64;36.69;94352.78;4994036;28;20541;-82
2022/07/14 00:11:26;;;;;;;2.13;1.00;;;;;;;19.09;36.45;94370.34;4995141;28;20031;-80
2022/07/14 00:13:52;;;;;;;1.45;1.05;;;;;;;18.87;36.44;94342.91;4994236;28;20033;-81
2022/07/14 00:16:17;;;;;;;2.35;0.93;;;;;;;18.86;36.57;94351.38;4993910;28;20066;-82
2022/07/14 00:18:43;;;;;;;0.55;0.55;;;;;;;19.02;36.16;94345.94;5000110;28;20028;-81
2022/07/14 00:21:15;;;;;;;1.13;0.80;;;;;;;18.96;36.23;94368.91;5008938;28;20034;-81
2022/07/14 00:23:42;;;;;;;1.48;0.65;;;;;;;19.06;36.50;94371.06;4995911;28;20053;-81
2022/07/14 00:26:07;;;;;;;1.25;0.80;;;;;;;18.73;36.76;94379.53;4992839;28;20033;-82
2022/07/14 00:28:33;;;;;;;2.80;1.00;;;;;;;18.81;36.15;94360.50;4996205;28;20045;-81
2022/07/14 00:31:03;;;;;;;0.73;0.73;;;;;;;18.64;36.11;94360.84;4994535;28;20789;-81
2022/07/14 00:33:30;;;;;;;1.00;0.90;;;;;;;18.62;36.09;94352.34;4992698;28;20033;-81
2022/07/14 00:35:56;;;;;;;2.38;0.80;;;;;;;18.61;35.92;94342.69;4993555;28;20022;-81
2022/07/14 00:38:21;;;;;;;0.70;0.70;;;;;;;18.80;36.00;94360.84;4993977;28;20038;-81
2022/07/14 00:40:46;;;;;;;0.73;0.70;;;;;;;18.70;36.01;94339.81;4993615;28;20030;-79
2022/07/14 00:43:12;;;;;;;1.95;0.90;;;;;;;18.47;36.31;94342.38;4994168;28;20033;-82
2022/07/14 00:45:37;;;;;;;0.70;0.60;;;;;;;18.65;36.33;94335.47;4993198;28;20359;-80
2022/07/14 00:48:03;;;;;;;1.00;0.90;;;;;;;18.78;35.86;94339.63;4996566;28;20029;-80
2022/07/14 00:50:28;;;;;;;1.85;0.70;;;;;;;18.75;35.55;94328.78;4993936;28;20026;-79
2022/07/14 00:52:54;;;;;;;0.93;0.70;;;;;;;18.51;36.78;94318.22;5001106;28;20053;-79
2022/07/14 00:55:19;;;;;;;0.68;0.60;;;;;;;18.98;36.91;94362.00;4999909;28;20049;-80
2022/07/14 00:57:46;;;;;;;0.65;0.65;;;;;;;18.81;36.08;94365.91;4994988;28;20022;-79
2022/07/14 01:00:14;;;;;;;2.80;0.70;;;;;;;18.85;36.54;94358.66;4996770;28;20041;-79
2022/07/14 01:02:41;;;;;;;1.00;0.70;;;;;;;18.54;36.21;94333.66;4995379;28;20385;-79
2022/07/14 01:05:07;;;;;;;1.13;0.70;;;;;;;18.69;36.06;94341.72;4993660;28;20021;-79
2022/07/14 01:07:32;;;;;;;0.90;0.70;;;;;;;18.31;36.08;94303.91;4992904;28;20575;-81
2022/07/14 01:09:58;;;;;;;0.60;0.60;;;;;;;18.52;36.06;94342.13;4993287;28;20134;-82
2022/07/14 01:12:24;;;;;;;1.02;0.70;;;;;;;18.50;36.39;94343.59;4991024;28;20474;-81
2022/07/14 01:14:49;;;;;;;1.00;0.65;;;;;;;18.42;36.69;94331.88;4994062;28;20114;-82
2022/07/14 01:17:15;;;;;;;1.15;0.82;;;;;;;18.62;36.47;94325.41;4992705;28;20034;-82
2022/07/14 01:19:40;;;;;;;1.35;0.70;;;;;;;18.66;36.11;94320.88;4994890;28;20124;-82
2022/07/14 01:22:06;;;;;;;1.15;0.70;;;;;;;18.71;36.11;94350.28;4991698;28;20030;-82
2022/07/14 01:24:32;;;;;;;2.20;0.80;;;;;;;18.82;36.03;94345.88;4993105;28;20026;-80
2022/07/14 01:26:58;;;;;;;0.77;0.70;;;;;;;18.41;37.92;94312.25;4994006;28;20470;-82
2022/07/14 01:29:24;;;;;;;1.40;0.90;;;;;;;18.77;37.19;94338.06;4994624;28;20581;-81
2022/07/14 01:31:50;;;;;;;0.90;0.70;;;;;;;18.48;36.10;94325.06;4993011;28;20105;-81
2022/07/14 01:34:16;;;;;;;2.83;0.70;;;;;;;18.80;37.05;94347.38;4992878;28;20054;-81
2022/07/14 01:36:41;;;;;;;1.08;0.70;;;;;;;18.74;36.57;94336.09;4992300;28;20112;-81
2022/07/14 01:39:07;;;;;;;2.50;1.20;;;;;;;18.31;36.30;94312.00;4990882;28;20024;-81
2022/07/14 01:41:34;;;;;;;0.70;0.70;;;;;;;18.60;37.52;94330.38;4993377;28;20022;-82
2022/07/14 01:44:01;;;;;;;1.15;0.82;;;;;;;18.86;37.21;94335.19;4992153;28;20105;-79
2022/07/14 01:46:26;;;;;;;7.22;1.27;;;;;;;18.87;37.33;94331.38;4991445;28;20109;-82
2022/07/14 01:48:52;;;;;;;0.98;0.80;;;;;;;18.89;37.19;94335.28;4991332;28;20529;-81
2022/07/14 01:51:17;;;;;;;1.08;0.98;;;;;;;18.68;36.93;94309.72;4992815;28;20029;-82
2022/07/14 01:53:43;;;;;;;0.80;0.80;;;;;;;18.40;36.53;94296.41;4993926;28;20053;-82
2022/07/14 01:56:10;;;;;;;0.80;0.80;;;;;;;18.66;37.07;94320.88;4991532;28;20149;-80
2022/07/14 01:58:35;;;;;;;0.70;0.70;;;;;;;18.74;37.72;94329.91;4991599;28;20104;-82
2022/07/14 02:03:45;;;;;;;0.73;0.70;;;;;;;18.60;38.38;94308.03;4991514;28;20085;-82
2022/07/14 02:06:12;;;;;;;3.78;0.63;;;;;;;18.48;38.54;94324.31;4991072;28;20029;-81
2022/07/14 02:08:38;;;;;;;1.92;0.70;;;;;;;18.52;38.42;94335.94;4991961;28;20054;-82
2022/07/14 02:13:47;;;;;;;2.88;0.70;;;;;;;17.96;39.07;94283.09;4991596;28;20296;-81
2022/07/14 02:16:13;;;;;;;1.70;0.90;;;;;;;18.18;39.13;94302.47;4992120;28;20744;-81
2022/07/14 02:18:38;;;;;;;0.93;0.70;;;;;;;18.39;38.72;94335.25;4990416;28;20030;-81
2022/07/14 02:21:04;;;;;;;0.60;0.50;;;;;;;18.38;38.49;94314.84;4992266;28;20030;-80
2022/07/14 02:23:29;;;;;;;1.27;0.75;;;;;;;18.24;38.21;94328.75;4990965;28;20033;-81
2022/07/14 02:25:54;;;;;;;0.68;0.50;;;;;;;18.21;39.24;94316.00;4996890;28;20021;-82
2022/07/14 02:28:20;;;;;;;1.00;0.90;;;;;;;18.30;39.28;94340.03;4998305;28;20041;-81
2022/07/14 02:30:46;;;;;;;1.35;0.85;;;;;;;18.23;39.67;94337.97;4991378;28;20493;-81
2022/07/14 02:33:11;;;;;;;1.52;0.68;;;;;;;18.07;39.08;94341.78;4989785;28;20061;-81
2022/07/14 02:35:37;;;;;;;1.10;0.65;;;;;;;18.01;39.90;94339.34;4992516;28;20069;-82
2022/07/14 02:38:03;;;;;;;1.38;0.80;;;;;;;17.82;39.44;94301.56;4991085;28;20025;-79
2022/07/14 02:40:29;;;;;;;0.60;0.60;;;;;;;17.82;38.49;94315.00;4989983;28;20934;-79
2022/07/14 02:42:54;;;;;;;2.15;0.80;;;;;;;17.65;38.64;94328.78;5007271;28;20021;-81
2022/07/14 02:45:19;;;;;;;2.05;0.82;;;;;;;17.78;39.68;94351.03;4992739;28;20037;-81
2022/07/14 02:47:45;;;;;;;1.02;0.90;;;;;;;17.88;39.88;94345.94;4990995;28;20030;-82
2022/07/14 02:50:11;;;;;;;0.65;0.65;;;;;;;17.84;39.00;94341.59;4993568;28;20029;-81
2022/07/14 02:52:37;;;;;;;2.45;0.90;;;;;;;17.94;38.65;94339.16;4990517;28;20513;-82
2022/07/14 02:55:03;;;;;;;1.02;0.88;;;;;;;18.03;38.45;94347.09;4991718;28;20028;-79
2022/07/14 02:57:29;;;;;;;1.67;0.70;;;;;;;18.26;38.20;94347.25;4990990;28;20037;-80
2022/07/14 02:59:54;;;;;;;1.52;0.80;;;;;;;18.31;38.79;94349.69;4992048;28;21160;-82
2022/07/14 03:02:19;;;;;;;2.90;0.80;;;;;;;18.19;39.32;94323.63;4990895;28;20026;-82
2022/07/14 03:04:45;;;;;;;0.80;0.80;;;;;;;18.38;39.55;94347.19;4989864;28;20030;-81
2022/07/14 03:07:10;;;;;;;1.20;1.10;;;;;;;18.18;39.95;94349.00;4991386;28;20053;-81
2022/07/14 03:09:36;;;;;;;3.85;0.70;;;;;;;18.19;40.41;94344.38;4990887;28;20689;-81
2022/07/14 03:12:01;;;;;;;1.48;0.70;;;;;;;18.17;40.92;94362.81;4989918;28;20029;-82
2022/07/14 03:14:27;;;;;;;1.33;0.95;;;;;;;18.13;40.79;94356.56;4990700;28;20804;-82
2022/07/14 03:16:52;;;;;;;2.22;1.58;;;;;;;18.10;40.82;94333.00;4990306;28;20029;-81
2022/07/14 03:19:17;;;;;;;3.67;1.48;;;;;;;18.22;41.07;94370.63;4991747;28;20116;-81
2022/07/14 03:21:43;;;;;;;5.20;1.75;;;;;;;18.09;41.49;94350.31;4989146;28;20515;-82
2022/07/14 03:24:08;;;;;;;2.15;1.52;;;;;;;17.79;42.39;94348.00;4992268;28;20413;-81
2022/07/14 03:26:35;;;;;;;6.65;2.08;;;;;;;17.91;42.24;94363.28;4989857;28;20072;-81
2022/07/14 03:29:01;;;;;;;1.95;1.70;;;;;;;17.96;42.09;94363.06;4992134;28;20022;-81
2022/07/14 03:31:26;;;;;;;3.22;2.05;;;;;;;17.97;41.85;94351.16;5004550;28;20581;-80
2022/07/14 03:33:52;;;;;;;3.20;2.58;;;;;;;17.85;42.46;94373.50;4990388;28;20057;-81
2022/07/14 03:36:20;;;;;;;1.85;1.60;;;;;;;17.95;42.75;94377.63;4996447;28;20977;-82
2022/07/14 03:38:46;;;;;;;3.50;2.28;;;;;;;17.86;42.64;94385.06;4995047;28;20018;-82
2022/07/14 03:41:11;;;;;;;2.35;1.45;;;;;;;17.74;43.13;94371.69;4994618;28;20038;-80
2022/07/14 03:43:37;;;;;;;2.42;2.03;;;;;;;17.73;42.73;94360.13;5009644;28;20960;-82
2022/07/14 03:46:03;;;;;;;4.70;2.05;;;;;;;17.41;42.93;94312.78;4993184;28;20026;-80
2022/07/14 03:48:28;;;;;;;2.05;1.70;;;;;;;17.81;42.47;94363.78;4995399;28;20587;-81
2022/07/14 03:50:54;;;;;;;2.45;2.22;;;;;;;17.42;42.96;94328.56;5001169;28;20029;-81
2022/07/14 03:53:19;;;;;;;10.25;2.20;;;;;;;17.97;42.97;94391.53;4993687;28;20558;-81
2022/07/14 03:55:45;;;;;;;3.28;1.95;;;;;;;18.01;42.72;94382.41;5010465;28;20041;-82
2022/07/14 03:58:10;;;;;;;2.35;2.00;;;;;;;17.96;42.35;94363.06;4993344;28;20149;-81
2022/07/14 04:00:36;;;;;;;3.72;3.17;;;;;;;17.85;43.00;94361.97;4994703;28;20045;-81
2022/07/14 04:03:01;;;;;;;5.65;2.00;;;;;;;18.03;42.71;94390.94;4992804;28;20026;-82
2022/07/14 04:05:27;;;;;;;3.00;1.80;;;;;;;17.95;43.17;94372.25;5000290;28;20164;-82
2022/07/14 04:07:52;;;;;;;3.40;2.40;;;;;;;18.01;43.31;94355.50;4992889;28;20413;-81
2022/07/14 04:10:18;;;;;;;4.07;2.08;;;;;;;18.25;43.48;94380.69;4995075;28;20026;-82
2022/07/14 04:12:44;;;;;;;3.17;2.50;;;;;;;18.13;43.26;94354.66;4995254;28;20060;-82
2022/07/14 04:15:10;;;;;;;4.13;2.30;;;;;;;18.36;43.42;94381.75;4993128;28;20056;-80
2022/07/14 04:17:35;;;;;;;3.85;2.22;;;;;;;18.32;43.76;94383.56;4995968;28;20125;-81
2022/07/14 04:20:01;;;;;;;3.70;2.60;;;;;;;18.09;44.29;94382.63;4992999;28;20618;-80
2022/07/14 04:22:27;;;;;;;2.47;2.00;;;;;;;17.92;44.60;94392.53;4993246;28;20026;-81
2022/07/14 04:24:52;;;;;;;4.13;2.10;;;;;;;17.89;43.90;94385.13;4993218;28;20026;-81
2022/07/14 04:27:19;;;;;;;3.20;2.20;;;;;;;17.89;44.08;94403.97;4993145;28;20489;-82
2022/07/14 04:29:45;;;;;;;2.85;2.55;;;;;;;18.15;43.22;94397.34;4994613;28;20018;-80
2022/07/14 04:32:10;;;;;;;3.58;2.20;;;;;;;17.97;43.30;94397.69;4992481;28;20056;-81
2022/07/14 04:34:36;;;;;;;3.88;2.15;;;;;;;17.95;42.77;94418.78;4994498;28;20032;-83
2022/07/14 04:37:05;;;;;;;2.85;2.30;;;;;;;17.92;43.02;94406.00;4994796;28;20057;-82
2022/07/14 04:39:30;;;;;;;5.07;2.30;;;;;;;18.21;43.37;94414.81;4993727;28;20219;-81
2022/07/14 04:41:56;;;;;;;2.88;2.25;;;;;;;17.95;43.84;94401.84;4995215;28;20034;-81
2022/07/14 04:44:21;;;;;;;3.00;2.40;;;;;;;18.13;43.57;94389.66;4993101;28;20058;-81
2022/07/14 04:46:46;;;;;;;4.05;2.60;;;;;;;18.21;43.87;94401.38;4993504;28;20133;-81
2022/07/14 04:52:02;;;;;;;9.23;2.70;;;;;;;17.53;43.69;94361.13;4993337;28;20033;-82
2022/07/14 04:54:28;;;;;;;2.72;2.30;;;;;;;18.29;43.37;94420.03;4993579;28;20031;-82
2022/07/14 04:56:54;;;;;;;4.50;3.03;;;;;;;18.63;43.12;94418.56;4998047;28;20044;-82
2022/07/14 04:59:20;;;;;;;6.85;3.33;;;;;;;18.74;42.93;94414.22;4993780;28;20495;-82
2022/07/14 05:01:46;;;;;;;5.72;3.85;;;;;;;18.53;43.12;94380.59;4992666;28;20041;-82
2022/07/14 05:04:11;;;;;;;2.55;2.33;;;;;;;18.87;42.44;94391.41;4991618;28;20494;-80
2022/07/14 05:06:37;;;;;;;3.55;2.60;;;;;;;18.98;42.72;94425.91;4993160;28;20030;-83
2022/07/14 05:09:03;;;;;;;4.95;2.70;;;;;;;18.70;43.23;94389.13;4993096;28;20178;-79
2022/07/14 05:11:29;;;;;;;5.00;2.45;;;;;;;18.77;42.88;94389.28;4999439;28;20023;-82
2022/07/14 05:13:54;;;;;;;5.75;2.90;;;;;;;18.89;42.62;94410.72;4991378;28;20037;-81
2022/07/14 05:16:20;;;;;;;3.30;2.40;;;;;;;18.89;43.41;94421.50;4994689;28;20523;-80
2022/07/14 05:18:46;;;;;;;7.88;2.75;;;;;;;18.76;43.41;94432.75;4994606;28;20533;-80
2022/07/14 05:21:12;;;;;;;5.00;2.83;;;;;;;18.58;43.68;94413.44;4996284;28;20030;-80
2022/07/14 05:23:37;;;;;;;7.38;3.47;;;;;;;18.45;43.68;94406.56;4993637;28;20030;-80
2022/07/14 05:26:08;;;;;;;6.95;2.85;;;;;;;18.70;44.09;94402.59;4991674;28;20454;-79
2022/07/14 05:28:34;;;;;;;6.22;3.58;;;;;;;18.81;44.47;94411.72;4997425;28;20029;-80
2022/07/14 05:31:00;;;;;;;5.97;2.92;;;;;;;18.95;43.95;94410.47;4994298;28;20014;-80
2022/07/14 05:33:25;;;;;;;6.55;3.05;;;;;;;19.17;42.95;94425.97;4991451;28;20067;-80
2022/07/14 05:35:50;;;;;;;3.65;2.85;;;;;;;19.05;42.85;94401.84;4995494;28;20033;-79
2022/07/14 05:38:16;;;;;;;3.97;2.95;;;;;;;18.92;43.76;94376.88;4994003;28;20025;-79
2022/07/14 05:40:41;;;;;;;7.70;2.72;;;;;;;19.27;43.49;94390.34;4994850;28;20100;-80
2022/07/14 05:43:07;;;;;;;6.22;3.22;;;;;;;19.17;43.50;94377.44;4994557;28;20022;-79
2022/07/14 05:45:32;;;;;;;5.50;2.70;;;;;;;19.87;43.28;94425.88;4997210;28;20025;-79
2022/07/14 05:47:58;;;;;;;6.63;2.97;;;;;;;19.96;43.39;94427.22;4999548;28;20022;-79
2022/07/14 05:50:23;;;;;;;5.22;2.65;;;;;;;20.03;42.60;94415.78;4994158;28;20084;-79
2022/07/14 05:52:49;;;;;;;3.35;2.72;;;;;;;19.94;42.63;94404.44;5008843;28;20036;-80
2022/07/14 05:55:14;;;;;;;4.72;2.35;;;;;;;19.72;42.33;94411.34;4996596;28;20030;-79
2022/07/14 05:57:39;;;;;;;4.82;3.05;;;;;;;19.94;41.96;94428.72;5008802;28;20030;-80
2022/07/14 06:00:06;;;;;;;4.88;2.70;;;;;;;20.26;41.39;94418.53;4994530;28;20045;-79
2022/07/14 06:02:31;;;;;;;3.78;2.65;;;;;;;20.49;41.16;94417.38;4995076;28;20025;-82
2022/07/14 06:04:57;;;;;;;6.32;2.58;;;;;;;20.70;41.06;94413.47;4994275;28;20032;-82
2022/07/14 06:07:22;;;;;;;7.38;2.45;;;;;;;20.68;40.66;94391.44;4996538;28;20022;-82
2022/07/14 06:09:49;;;;;;;5.07;2.92;;;;;;;20.91;40.36;94398.41;4998301;28;20037;-82
2022/07/14 06:12:16;;;;;;;2.85;2.50;;;;;;;21.13;40.43;94410.28;5009717;28;20482;-81
2022/07/14 06:14:43;;;;;;;5.05;3.50;;;;;;;21.03;40.21;94383.88;4993825;28;20030;-81
2022/07/14 06:17:09;;;;;;;2.53;2.22;;;;;;;21.12;40.01;94370.09;4991153;28;20036;-82
2022/07/14 06:19:34;;;;;;;4.70;2.83;;;;;;;21.43;39.34;94399.47;4998495;28;20833;-81
2022/07/14 06:22:04;;;;;;;3.60;2.17;;;;;;;21.49;38.16;94391.81;4991879;28;20382;-81
2022/07/14 06:24:29;;;;;;;4.22;2.10;;;;;;;21.51;38.69;94392.22;4992897;28;20030;-80
2022/07/14 06:26:54;;;;;;;3.60;2.65;;;;;;;21.62;40.19;94403.97;4998969;28;20077;-81
2022/07/14 06:29:20;;;;;;;7.90;2.65;;;;;;;21.77;38.64;94401.06;4993301;28;20026;-82
2022/07/14 06:31:45;;;;;;;3.65;2.15;;;;;;;21.70;37.96;94394.81;4994037;28;20190;-82
2022/07/14 06:34:11;;;;;;;3.75;1.80;;;;;;;21.02;38.43;94360.69;4992274;28;20172;-81
2022/07/14 06:36:37;;;;;;;2.53;2.33;;;;;;;20.61;38.66;94384.00;5005623;28;20025;-81
2022/07/14 06:39:02;;;;;;;6.63;2.40;;;;;;;20.90;39.13;94401.44;4991021;28;20153;-79
2022/07/14 06:41:28;;;;;;;2.67;2.17;;;;;;;21.02;39.67;94403.97;4991238;28;20033;-82
2022/07/14 06:43:53;;;;;;;1.85;1.63;;;;;;;21.13;38.50;94356.19;4994468;28;20025;-79
2022/07/14 06:46:19;;;;;;;2.40;1.88;;;;;;;21.64;38.20;94394.34;4991275;28;20029;-81
2022/07/14 06:48:45;;;;;;;4.57;2.15;;;;;;;21.78;38.08;94393.72;4993728;28;20403;-82
2022/07/14 06:51:10;;;;;;;2.17;1.80;;;;;;;21.66;38.09;94402.09;4990356;28;20688;-80
2022/07/14 06:53:36;;;;;;;3.95;2.00;;;;;;;21.94;37.96;94402.44;4991316;28;20026;-81
2022/07/14 06:56:02;;;;;;;3.08;1.80;;;;;;;21.67;36.68;94368.47;4992709;28;20112;-82
2022/07/14 06:58:27;;;;;;;2.20;1.85;;;;;;;22.04;36.15;94388.22;4995821;28;20034;-82
2022/07/14 07:00:53;;;;;;;2.60;2.08;;;;;;;22.28;35.46;94389.66;4991481;28;20039;-82
2022/07/14 07:03:18;;;;;;;3.42;1.40;;;;;;;22.39;35.77;94373.47;4989265;28;20029;-82
2022/07/14 07:08:29;;;;;;;2.60;1.67;;;;;;;22.44;36.31;94373.13;4989028;28;20092;-80
2022/07/14 07:10:56;;;;;;;3.45;1.48;;;;;;;22.61;36.88;94383.34;4989598;28;20026;-82
2022/07/14 07:13:21;;;;;;;3.35;1.42;;;;;;;22.69;34.91;94380.28;4991272;28;20049;-82
2022/07/14 07:15:46;;;;;;;2.45;1.40;;;;;;;22.49;35.09;94380.91;4990718;28;20046;-81
2022/07/14 07:18:12;;;;;;;2.67;1.60;;;;;;;22.10;35.53;94377.81;4990236;28;20034;-82
2022/07/14 07:20:37;;;;;;;2.28;1.63;;;;;;;21.96;36.13;94370.31;4993143;28;20053;-81
2022/07/14 07:23:04;;;;;;;4.30;1.60;;;;;;;22.26;36.19;94367.56;4990262;28;20116;-80
2022/07/14 07:25:30;;;;;;;9.05;2.00;;;;;;;22.30;35.47;94357.50;4991035;28;20477;-81
2022/07/14 07:27:56;;;;;;;1.88;1.40;;;;;;;22.48;34.95;94371.22;4991488;28;20036;-79
2022/07/14 07:30:21;;;;;;;2.95;1.27;;;;;;;22.72;34.37;94373.34;4993637;28;20040;-80
2022/07/14 07:32:47;;;;;;;4.13;2.13;;;;;;;22.52;36.06;94353.06;4993013;28;20030;-80
2022/07/14 07:35:13;;;;;;;1.85;1.42;;;;;;;22.39;35.38;94373.47;4993580;28;20489;-79
2022/07/14 07:37:38;;;;;;;6.95;2.25;;;;;;;22.14;34.67;94370.50;4990415;28;20496;-80
2022/07/14 07:40:04;;;;;;;3.83;1.80;;;;;;;21.97;35.28;94361.06;4994301;28;20045;-79
2022/07/14 07:42:30;;;;;;;2.60;1.45;;;;;;;22.17;35.03;94362.41;5007203;28;20033;-79
2022/07/14 07:44:57;;;;;;;3.50;1.30;;;;;;;21.93;34.92;94319.63;4993714;28;20021;-80
2022/07/14 07:47:23;;;;;;;2.28;1.10;;;;;;;22.11;35.37;94361.19;4995200;28;20608;-80
2022/07/14 07:49:49;;;;;;;1.40;1.00;;;;;;;22.02;35.33;94368.06;4993963;28;20041;-80
2022/07/14 07:52:15;;;;;;;2.35;1.30;;;;;;;21.42;35.67;94352.69;4994072;28;20100;-80
2022/07/14 07:54:41;;;;;;;2.78;0.95;;;;;;;21.59;35.38;94383.06;4994592;28;20040;-80
2022/07/14 07:57:06;;;;;;;1.33;0.90;;;;;;;21.19;35.07;94338.50;4991457;28;20026;-82
2022/07/14 07:59:32;;;;;;;1.63;1.10;;;;;;;21.34;35.66;94361.88;4988594;28;20029;-82
2022/07/14 08:01:57;;;;;;;1.92;0.95;;;;;;;21.64;35.22;94364.59;4992246;28;20057;-83
2022/07/14 08:04:22;;;;;;;1.20;0.90;;;;;;;21.59;34.67;94337.06;4991117;28;20497;-82
2022/07/14 08:06:48;;;;;;;2.13;1.17;;;;;;;22.02;34.61;94368.84;4991357;28;20228;-82
2022/07/14 08:09:13;;;;;;;1.52;0.93;;;;;;;22.02;34.60;94359.94;5005373;28;20611;-81
2022/07/14 08:11:42;;;;;;;1.00;0.75;;;;;;;22.11;35.19;94350.34;4996259;28;20030;-82
2022/07/14 08:14:47;;;;;;;1.23;1.13;;;;;;;22.12;35.15;94349.22;4996723;28;20026;-82
2022/07/14 08:16:58;;;;;;;2.22;0.90;;;;;;;22.34;35.09;94346.72;4987430;28;20030;-82
2022/07/14 08:19:24;;;;;;;1.60;1.30;;;;;;;22.40;34.41;94346.00;4985294;28;20061;-83
2022/07/14 08:21:50;;;;;;;1.83;0.80;;;;;;;22.05;33.92;94346.41;4988823;28;20144;-81
2022/07/14 08:24:18;;;;;;;1.60;1.13;;;;;;;22.22;36.08;94345.84;4991743;28;20529;-83
2022/07/14 08:26:44;;;;;;;1.85;1.10;;;;;;;22.36;35.50;94333.56;4983818;28;20556;-83
2022/07/14 08:29:10;;;;;;;1.10;0.95;;;;;;;22.25;35.07;94333.47;4987386;28;20710;-81
2022/07/14 08:31:35;;;;;;;1.27;1.02;;;;;;;22.63;33.35;94348.50;4984808;28;20033;-81
2022/07/14 08:34:01;;;;;;;1.90;1.25;;;;;;;22.72;32.98;94347.03;4983893;28;20180;-82
2022/07/14 08:36:27;;;;;;;1.70;1.25;;;;;;;22.32;33.44;94327.34;4985161;28;20026;-80
2022/07/14 08:38:52;;;;;;;1.10;0.90;;;;;;;22.55;34.07;94344.16;4983964;28;20030;-82
2022/07/14 08:41:18;;;;;;;1.60;0.90;;;;;;;22.61;32.78;94312.84;4984467;28;20390;-79
2022/07/14 08:43:45;;;;;;;2.15;0.70;;;;;;;22.50;33.63;94339.88;4989516;28;20061;-81
2022/07/14 08:46:11;;;;;;;2.22;1.23;;;;;;;22.68;34.44;94334.59;4986308;28;20661;-81
2022/07/14 08:48:38;;;;;;;1.00;0.88;;;;;;;22.84;32.61;94332.34;4983181;28;20967;-83
2022/07/14 08:51:05;;;;;;;0.80;0.80;;;;;;;22.97;34.16;94325.50;4983534;28;20030;-82
2022/07/14 08:53:31;;;;;;;1.02;0.82;;;;;;;22.87;32.90;94314.59;4984457;28;20056;-82
2022/07/14 08:55:57;;;;;;;1.35;0.70;;;;;;;22.53;32.65;94328.28;4981404;28;20108;-81
2022/07/14 08:58:23;;;;;;;1.95;0.85;;;;;;;21.99;33.29;94298.41;4982308;28;20037;-82
2022/07/14 09:00:48;;;;;;;1.48;0.90;;;;;;;22.37;32.84;94335.13;4982286;28;21574;-82
2022/07/14 09:03:17;;;;;;;2.65;1.00;;;;;;;22.28;32.46;94338.94;4984344;28;20609;-81
2022/07/14 09:05:44;;;;;;;1.05;0.70;;;;;;;21.79;31.20;94327.63;4985962;28;20037;-82
2022/07/14 09:08:11;;;;;;;1.13;0.80;;;;;;;21.93;33.21;94338.59;4983049;28;20058;-82
2022/07/14 09:10:38;;;;;;;1.40;0.88;;;;;;;21.95;33.45;94317.31;4989875;28;20109;-82
2022/07/14 09:13:14;;;;;;;4.35;0.80;;;;;;;22.37;31.70;94330.50;4982545;28;20018;-81
2022/07/14 09:15:46;;;;;;;1.13;0.98;;;;;;;22.42;31.88;94322.00;4984889;28;20022;-82
2022/07/14 09:18:23;;;;;;;1.27;0.70;;;;;;;22.21;32.51;94283.88;4984784;28;20860;-82
2022/07/14 09:20:50;;;;;;;1.52;0.90;;;;;;;22.45;32.14;94315.06;4982537;28;20635;-82
2022/07/14 09:23:26;;;;;;;1.88;0.90;;;;;;;22.53;31.63;94322.09;4987526;28;20065;-82
2022/07/14 09:26:08;;;;;;;0.82;0.63;;;;;;;22.70;32.10;94313.28;4981316;28;20710;-82
2022/07/14 09:28:38;;;;;;;2.25;0.80;;;;;;;22.86;31.29;94286.69;4982211;28;20388;-79
2022/07/14 09:31:36;;;;;;;1.30;0.80;;;;;;;22.82;32.07;94304.84;4964504;28;20068;-82
2022/07/14 09:34:05;;;;;;;1.00;0.60;;;;;;;22.99;32.44;94306.91;4952911;28;20049;-80
2022/07/14 09:36:33;;;;;;;1.58;1.00;;;;;;;23.17;32.40;94307.75;4981356;28;20596;-82
2022/07/14 09:39:07;;;;;;;0.70;0.70;;;;;;;23.29;31.32;94300.44;4980694;28;20072;-82
2022/07/14 09:41:53;;;;;;;3.40;1.10;;;;;;;23.38;30.59;94306.28;4975660;28;20929;-82
2022/07/14 09:44:20;;;;;;;1.38;1.15;;;;;;;23.27;31.08;94283.78;4993073;28;20049;-81
2022/07/14 09:46:56;;;;;;;1.55;0.98;;;;;;;23.07;30.41;94246.09;4991635;28;20072;-82
2022/07/14 09:49:30;;;;;;;1.02;0.90;;;;;;;23.17;30.97;94301.59;4993339;28;20084;-82
2022/07/14 09:52:01;;;;;;;2.08;0.95;;;;;;;23.31;31.58;94284.56;4984005;28;20037;-82
2022/07/14 09:54:41;;;;;;;2.78;0.90;;;;;;;23.26;32.77;94290.38;4990818;28;20060;-82
2022/07/14 09:57:12;;;;;;;1.30;0.82;;;;;;;23.40;30.79;94304.78;4982425;28;20156;-82
2022/07/14 09:59:45;;;;;;;1.10;0.80;;;;;;;23.41;30.89;94286.56;4984805;28;20042;-81
2022/07/14 10:02:16;;;;;;;2.70;0.95;;;;;;;23.52;31.19;94299.00;4997320;28;20441;-83
2022/07/14 10:04:43;;;;;;;1.42;0.80;;;;;;;23.44;31.14;94278.41;4987666;28;20084;-82
2022/07/14 10:07:09;;;;;;;2.83;1.30;;;;;;;23.50;31.14;94268.00;4990379;28;20049;-82
2022/07/14 10:09:37;;;;;;;1.55;0.70;;;;;;;23.63;30.54;94268.38;4982375;28;20523;-82
2022/07/14 10:12:04;;;;;;;1.08;0.95;;;;;;;23.56;34.02;94267.22;4987012;28;20034;-79
2022/07/14 10:14:30;;;;;;;1.00;0.90;;;;;;;23.67;34.76;94280.81;4983103;28;20376;-82
2022/07/14 10:16:58;;;;;;;2.58;1.00;;;;;;;23.88;30.02;94286.28;4997132;28;20348;-82
2022/07/14 10:19:25;;;;;;;0.88;0.77;;;;;;;23.73;30.49;94256.78;4997541;28;20049;-83
2022/07/14 10:21:54;;;;;;;1.70;1.10;;;;;;;23.96;30.21;94293.28;4990582;28;20108;-82
2022/07/14 10:24:21;;;;;;;2.55;0.90;;;;;;;23.83;30.22;94273.09;4984562;28;20042;-80
2022/07/14 10:26:47;;;;;;;5.10;1.10;;;;;;;23.95;32.23;94274.66;4992548;28;20154;-80
2022/07/14 10:29:13;;;;;;;1.63;1.10;;;;;;;23.86;30.95;94247.88;4990806;28;20482;-80
2022/07/14 10:31:45;;;;;;;2.00;0.90;;;;;;;24.14;33.54;94270.81;4983437;28;20134;-80
2022/07/14 10:34:46;;;;;;;1.70;0.90;;;;;;;23.76;33.13;94235.03;4991100;28;20240;-80
2022/07/14 10:37:21;;;;;;;2.35;1.20;;;;;;;23.99;31.45;94265.34;4983772;28;20073;-79
2022/07/14 10:40:03;;;;;;;;;;;;;;;24.19;31.31;94262.28;4983802;28;20026;-80
2022/07/14 10:43:21;;;;;;;10.13;1.73;;;;;;;24.17;31.60;94223.84;4990598;28;19949;-80
2022/07/14 10:45:48;;;;;;;1.48;0.90;;;;;;;24.17;36.45;94245.56;4963248;28;20546;-79
2022/07/14 10:48:33;;;;;;;1.67;0.98;;;;;;;24.37;31.12;94252.16;4962361;28;20034;-79
2022/07/14 10:51:14;;;;;;;1.25;0.98;;;;;;;24.47;29.66;94258.75;4987002;28;20617;-81
2022/07/14 10:54:00;;;;;;;1.05;0.93;;;;;;;24.50;30.24;94261.47;4987711;28;20037;-82
2022/07/14 10:56:26;;;;;;;0.85;0.80;;;;;;;24.22;30.32;94205.19;4987439;28;20447;-82
2022/07/14 10:59:26;;;;;;;1.02;0.82;;;;;;;24.46;30.76;94249.81;4990820;28;20080;-82
2022/07/14 11:02:10;;;;;;;1.48;1.17;;;;;;;23.97;31.26;94245.16;4989481;28;20427;-80
2022/07/14 11:04:58;;;;;;;1.08;0.98;;;;;;;23.46;36.48;94242.75;4995914;28;20414;-81
2022/07/14 11:07:59;;;;;;;2.92;1.00;;;;;;;23.75;36.77;94238.94;5001288;28;20034;-81
2022/07/14 11:10:25;;;;;;;0.80;0.80;;;;;;;23.82;34.61;94241.66;4970956;28;20465;-80
2022/07/14 11:13:03;;;;;;;1.00;0.90;;;;;;;23.64;33.12;94188.50;4984687;28;20029;-80
2022/07/14 11:16:07;;;;;;;1.17;0.88;;;;;;;24.16;34.32;94223.06;5010590;28;20019;-80
2022/07/14 11:18:37;;;;;;;1.38;0.90;;;;;;;24.02;33.22;94199.38;4975475;28;20453;-81
2022/07/14 11:21:16;;;;;;;1.20;0.90;;;;;;;24.39;29.72;94228.09;4986209;28;20039;-80
2022/07/14 11:23:46;;;;;;;2.25;0.77;;;;;;;24.39;30.79;94228.09;4994373;28;20041;-81
2022/07/14 11:26:47;;;;;;;1.10;0.90;;;;;;;24.54;30.46;94229.59;4996214;28;20038;-80
2022/07/14 11:29:13;;;;;;;1.33;1.20;;;;;;;24.63;32.89;94221.06;4994660;28;20032;-79
2022/07/14 11:31:49;;;;;;;2.13;1.83;;;;;;;24.73;29.97;94218.34;4996329;28;20045;-80
2022/07/14 11:37:06;;;;;;;1.08;0.90;;;;;;;24.81;29.63;94200.81;4996275;28;20037;-80
2022/07/14 11:39:34;;;;;;;1.50;1.20;;;;;;;24.82;32.93;94186.06;4997742;28;20029;-79
2022/07/14 11:42:11;;;;;;;1.25;0.90;;;;;;;25.03;29.48;94206.19;4998386;28;20069;-80
2022/07/14 11:44:40;;;;;;;4.10;1.00;;;;;;;24.52;34.41;94209.41;4993129;28;20034;-79
2022/07/14 11:47:15;;;;;;;1.30;1.00;;;;;;;24.61;30.32;94207.84;4990175;28;20030;-80
2022/07/14 11:49:41;;;;;;;0.90;0.90;;;;;;;24.74;29.27;94200.06;4996851;28;20101;-80
2022/07/14 11:52:09;;;;;;;1.85;1.10;;;;;;;24.76;29.60;94195.00;4997378;28;20052;-80